sensor_id;sensor_type;location;lat;lon;timestamp;P1;durP1;ratioP1;P2;durP2;ratioP2
11447;SDS011;43755;49.736;8.734;2022-11-04T00:00:23;5.45;;;4.43;;
11447;SDS011;43755;49.736;8.734;2022-11-04T00:02:25;4.97;;;4.47;;
11447;SDS011;43755;49.736;8.734;2022-11-04T00:04:27;4.28;;;3.97;;
11447;SDS011;43755;49.736;8.734;2022-11-04T00:06:29;5.00;;;4.55;;
11447;SDS011;43755;49.736;8.734;2022-11-04T00:08:30;5.13;;;4.63;;
11447;SDS011;43755;49.736;8.734;2022-11-04T00:10:30;4.47;;;3.70;;
11447;SDS011;43755;49.736;8.734;2022-11-04T00:12:46;4.70;;;3.75;;
11447;SDS011;43755;49.736;8.734;2022-11-04T00:14:48;4.90;;;4.15;;
11447;SDS011;43755;49.736;8.734;2022-11-04T00:16:50;4.60;;;3.90;;
11447;SDS011;43755;49.736;8.734;2022-11-04T00:19:09;3.92;;;3.50;;
11447;SDS011;43755;49.736;8.734;2022-11-04T00:21:10;3.97;;;3.67;;
11447;SDS011;43755;49.736;8.734;2022-11-04T00:23:29;4.22;;;3.83;;
11447;SDS011;43755;49.736;8.734;2022-11-04T00:25:48;3.40;;;3.10;;
11447;SDS011;43755;49.736;8.734;2022-11-04T00:28:08;4.35;;;3.92;;
11447;SDS011;43755;49.736;8.734;2022-11-04T00:30:30;4.00;;;3.70;;
11447;SDS011;43755;49.736;8.734;2022-11-04T00:32:31;4.28;;;3.88;;
11447;SDS011;43755;49.736;8.734;2022-11-04T00:34:50;4.53;;;4.13;;
11447;SDS011;43755;49.736;8.734;2022-11-04T00:36:52;4.03;;;3.67;;
11447;SDS011;43755;49.736;8.734;2022-11-04T00:38:53;4.30;;;3.90;;
11447;SDS011;43755;49.736;8.734;2022-11-04T00:40:54;4.30;;;3.90;;
11447;SDS011;43755;49.736;8.734;2022-11-04T00:42:56;3.90;;;3.60;;
11447;SDS011;43755;49.736;8.734;2022-11-04T00:44:57;3.60;;;3.30;;
11447;SDS011;43755;49.736;8.734;2022-11-04T00:47:00;3.67;;;3.38;;
11447;SDS011;43755;49.736;8.734;2022-11-04T00:49:01;3.70;;;3.40;;
11447;SDS011;43755;49.736;8.734;2022-11-04T00:51:03;3.72;;;3.42;;
11447;SDS011;43755;49.736;8.734;2022-11-04T00:53:04;4.28;;;3.58;;
11447;SDS011;43755;49.736;8.734;2022-11-04T00:55:06;4.25;;;3.55;;
11447;SDS011;43755;49.736;8.734;2022-11-04T00:57:08;3.70;;;3.40;;
11447;SDS011;43755;49.736;8.734;2022-11-04T00:59:10;4.70;;;4.25;;
11447;SDS011;43755;49.736;8.734;2022-11-04T01:01:12;5.40;;;4.90;;
11447;SDS011;43755;49.736;8.734;2022-11-04T01:03:18;7.13;;;5.45;;
11447;SDS011;43755;49.736;8.734;2022-11-04T01:05:19;4.97;;;4.57;;
11447;SDS011;43755;49.736;8.734;2022-11-04T01:07:21;4.97;;;4.32;;
11447;SDS011;43755;49.736;8.734;2022-11-04T01:09:23;4.45;;;4.00;;
11447;SDS011;43755;49.736;8.734;2022-11-04T01:11:25;4.05;;;3.75;;
11447;SDS011;43755;49.736;8.734;2022-11-04T01:13:27;4.88;;;4.50;;
11447;SDS011;43755;49.736;8.734;2022-11-04T01:15:28;5.53;;;4.53;;
11447;SDS011;43755;49.736;8.734;2022-11-04T01:17:30;5.57;;;5.07;;
11447;SDS011;43755;49.736;8.734;2022-11-04T01:19:34;6.05;;;5.38;;
11447;SDS011;43755;49.736;8.734;2022-11-04T01:21:36;4.95;;;4.45;;
11447;SDS011;43755;49.736;8.734;2022-11-04T01:23:38;4.95;;;4.45;;
11447;SDS011;43755;49.736;8.734;2022-11-04T01:25:40;4.60;;;4.20;;
11447;SDS011;43755;49.736;8.734;2022-11-04T01:27:41;4.85;;;4.45;;
11447;SDS011;43755;49.736;8.734;2022-11-04T01:29:43;4.85;;;4.35;;
11447;SDS011;43755;49.736;8.734;2022-11-04T01:31:44;4.30;;;3.80;;
11447;SDS011;43755;49.736;8.734;2022-11-04T01:33:46;3.92;;;3.63;;
11447;SDS011;43755;49.736;8.734;2022-11-04T01:35:49;3.65;;;3.30;;
11447;SDS011;43755;49.736;8.734;2022-11-04T01:37:50;3.78;;;3.47;;
11447;SDS011;43755;49.736;8.734;2022-11-04T01:39:52;3.58;;;3.28;;
11447;SDS011;43755;49.736;8.734;2022-11-04T01:41:53;4.20;;;3.80;;
11447;SDS011;43755;49.736;8.734;2022-11-04T01:43:55;4.15;;;3.85;;
11447;SDS011;43755;49.736;8.734;2022-11-04T01:45:58;4.80;;;4.40;;
11447;SDS011;43755;49.736;8.734;2022-11-04T01:48:02;4.88;;;4.47;;
11447;SDS011;43755;49.736;8.734;2022-11-04T01:50:09;7.40;;;4.60;;
11447;SDS011;43755;49.736;8.734;2022-11-04T01:52:16;5.50;;;4.80;;
11447;SDS011;43755;49.736;8.734;2022-11-04T01:54:22;4.88;;;4.47;;
11447;SDS011;43755;49.736;8.734;2022-11-04T01:56:24;5.25;;;4.85;;
11447;SDS011;43755;49.736;8.734;2022-11-04T01:58:28;5.35;;;4.82;;
11447;SDS011;43755;49.736;8.734;2022-11-04T02:00:32;5.25;;;4.80;;
11447;SDS011;43755;49.736;8.734;2022-11-04T02:02:34;6.43;;;4.72;;
11447;SDS011;43755;49.736;8.734;2022-11-04T02:04:40;4.97;;;4.47;;
11447;SDS011;43755;49.736;8.734;2022-11-04T02:06:44;5.03;;;4.63;;
11447;SDS011;43755;49.736;8.734;2022-11-04T02:08:48;4.93;;;4.47;;
11447;SDS011;43755;49.736;8.734;2022-11-04T02:10:51;5.45;;;4.50;;
11447;SDS011;43755;49.736;8.734;2022-11-04T02:12:58;4.47;;;4.15;;
11447;SDS011;43755;49.736;8.734;2022-11-04T02:15:00;4.40;;;4.10;;
11447;SDS011;43755;49.736;8.734;2022-11-04T02:17:08;4.00;;;3.70;;
11447;SDS011;43755;49.736;8.734;2022-11-04T02:19:28;3.72;;;3.40;;
11447;SDS011;43755;49.736;8.734;2022-11-04T02:24:29;3.50;;;3.25;;
11447;SDS011;43755;49.736;8.734;2022-11-04T02:26:58;3.58;;;3.28;;
11447;SDS011;43755;49.736;8.734;2022-11-04T02:29:28;3.25;;;3.05;;
11447;SDS011;43755;49.736;8.734;2022-11-04T02:31:39;3.20;;;3.00;;
11447;SDS011;43755;49.736;8.734;2022-11-04T02:33:52;2.80;;;2.60;;
11447;SDS011;43755;49.736;8.734;2022-11-04T02:36:02;2.22;;;2.00;;
11447;SDS011;43755;49.736;8.734;2022-11-04T02:38:09;2.83;;;2.20;;
11447;SDS011;43755;49.736;8.734;2022-11-04T02:40:18;2.35;;;2.25;;
11447;SDS011;43755;49.736;8.734;2022-11-04T02:42:28;2.25;;;2.15;;
11447;SDS011;43755;49.736;8.734;2022-11-04T02:44:36;2.42;;;2.10;;
11447;SDS011;43755;49.736;8.734;2022-11-04T02:46:45;2.50;;;1.95;;
11447;SDS011;43755;49.736;8.734;2022-11-04T02:48:52;2.20;;;2.10;;
11447;SDS011;43755;49.736;8.734;2022-11-04T02:50:58;2.55;;;2.10;;
11447;SDS011;43755;49.736;8.734;2022-11-04T02:53:06;2.97;;;2.10;;
11447;SDS011;43755;49.736;8.734;2022-11-04T02:55:14;2.63;;;2.00;;
11447;SDS011;43755;49.736;8.734;2022-11-04T02:57:21;2.60;;;2.03;;
11447;SDS011;43755;49.736;8.734;2022-11-04T02:59:28;3.33;;;2.08;;
11447;SDS011;43755;49.736;8.734;2022-11-04T03:01:37;2.10;;;1.90;;
11447;SDS011;43755;49.736;8.734;2022-11-04T03:03:42;3.80;;;2.00;;
11447;SDS011;43755;49.736;8.734;2022-11-04T03:05:49;2.45;;;2.05;;
11447;SDS011;43755;49.736;8.734;2022-11-04T03:07:54;2.08;;;1.75;;
11447;SDS011;43755;49.736;8.734;2022-11-04T03:10:01;3.75;;;1.80;;
11447;SDS011;43755;49.736;8.734;2022-11-04T03:12:06;2.60;;;1.63;;
11447;SDS011;43755;49.736;8.734;2022-11-04T03:14:15;2.67;;;2.00;;
11447;SDS011;43755;49.736;8.734;2022-11-04T03:16:21;2.17;;;1.98;;
11447;SDS011;43755;49.736;8.734;2022-11-04T03:18:31;2.35;;;1.70;;
11447;SDS011;43755;49.736;8.734;2022-11-04T03:20:37;2.70;;;1.90;;
11447;SDS011;43755;49.736;8.734;2022-11-04T03:22:40;3.03;;;1.70;;
11447;SDS011;43755;49.736;8.734;2022-11-04T03:24:42;3.65;;;2.17;;
11447;SDS011;43755;49.736;8.734;2022-11-04T03:26:46;6.00;;;2.30;;
11447;SDS011;43755;49.736;8.734;2022-11-04T03:28:54;4.72;;;1.75;;
11447;SDS011;43755;49.736;8.734;2022-11-04T03:31:04;2.20;;;1.95;;
11447;SDS011;43755;49.736;8.734;2022-11-04T03:33:12;2.70;;;1.90;;
11447;SDS011;43755;49.736;8.734;2022-11-04T03:35:20;2.33;;;1.77;;
11447;SDS011;43755;49.736;8.734;2022-11-04T03:37:22;3.25;;;1.92;;
11447;SDS011;43755;49.736;8.734;2022-11-04T03:39:23;3.45;;;1.92;;
11447;SDS011;43755;49.736;8.734;2022-11-04T03:41:30;3.55;;;1.70;;
11447;SDS011;43755;49.736;8.734;2022-11-04T03:43:36;3.75;;;2.05;;
11447;SDS011;43755;49.736;8.734;2022-11-04T03:45:41;7.13;;;2.17;;
11447;SDS011;43755;49.736;8.734;2022-11-04T03:47:43;4.47;;;1.80;;
11447;SDS011;43755;49.736;8.734;2022-11-04T03:49:45;4.60;;;2.20;;
11447;SDS011;43755;49.736;8.734;2022-11-04T03:51:49;3.60;;;1.77;;
11447;SDS011;43755;49.736;8.734;2022-11-04T03:53:52;3.20;;;1.70;;
11447;SDS011;43755;49.736;8.734;2022-11-04T03:55:59;4.97;;;1.73;;
11447;SDS011;43755;49.736;8.734;2022-11-04T03:58:15;4.55;;;2.22;;
11447;SDS011;43755;49.736;8.734;2022-11-04T04:00:28;4.53;;;1.80;;
11447;SDS011;43755;49.736;8.734;2022-11-04T04:02:45;6.20;;;2.05;;
11447;SDS011;43755;49.736;8.734;2022-11-04T04:05:00;7.72;;;2.53;;
11447;SDS011;43755;49.736;8.734;2022-11-04T04:07:10;4.75;;;1.90;;
11447;SDS011;43755;49.736;8.734;2022-11-04T04:09:17;5.82;;;2.00;;
11447;SDS011;43755;49.736;8.734;2022-11-04T04:11:22;5.13;;;1.90;;
11447;SDS011;43755;49.736;8.734;2022-11-04T04:13:33;3.17;;;1.70;;
11447;SDS011;43755;49.736;8.734;2022-11-04T04:15:40;3.92;;;1.65;;
11447;SDS011;43755;49.736;8.734;2022-11-04T04:17:45;4.60;;;1.67;;
11447;SDS011;43755;49.736;8.734;2022-11-04T04:19:52;7.60;;;1.77;;
11447;SDS011;43755;49.736;8.734;2022-11-04T04:21:59;3.85;;;1.77;;
11447;SDS011;43755;49.736;8.734;2022-11-04T04:24:05;4.80;;;1.85;;
11447;SDS011;43755;49.736;8.734;2022-11-04T04:26:27;5.47;;;1.60;;
11447;SDS011;43755;49.736;8.734;2022-11-04T04:28:48;3.17;;;1.63;;
11447;SDS011;43755;49.736;8.734;2022-11-04T04:30:51;4.53;;;1.60;;
11447;SDS011;43755;49.736;8.734;2022-11-04T04:32:54;4.50;;;1.70;;
11447;SDS011;43755;49.736;8.734;2022-11-04T04:34:59;5.82;;;1.50;;
11447;SDS011;43755;49.736;8.734;2022-11-04T04:37:19;6.13;;;1.75;;
11447;SDS011;43755;49.736;8.734;2022-11-04T04:39:26;3.22;;;1.50;;
11447;SDS011;43755;49.736;8.734;2022-11-04T04:41:51;5.13;;;1.85;;
11447;SDS011;43755;49.736;8.734;2022-11-04T04:44:12;4.45;;;1.55;;
11447;SDS011;43755;49.736;8.734;2022-11-04T04:46:36;5.60;;;1.50;;
11447;SDS011;43755;49.736;8.734;2022-11-04T04:48:38;4.65;;;1.75;;
11447;SDS011;43755;49.736;8.734;2022-11-04T04:50:41;7.20;;;2.45;;
11447;SDS011;43755;49.736;8.734;2022-11-04T04:52:50;5.47;;;1.70;;
11447;SDS011;43755;49.736;8.734;2022-11-04T04:54:54;5.70;;;1.88;;
11447;SDS011;43755;49.736;8.734;2022-11-04T04:56:56;4.30;;;2.00;;
11447;SDS011;43755;49.736;8.734;2022-11-04T04:58:57;8.50;;;1.80;;
11447;SDS011;43755;49.736;8.734;2022-11-04T05:00:59;4.65;;;1.70;;
11447;SDS011;43755;49.736;8.734;2022-11-04T05:03:00;4.50;;;1.77;;
11447;SDS011;43755;49.736;8.734;2022-11-04T05:05:02;5.88;;;1.70;;
11447;SDS011;43755;49.736;8.734;2022-11-04T05:07:03;6.57;;;1.80;;
11447;SDS011;43755;49.736;8.734;2022-11-04T05:09:06;4.45;;;1.60;;
11447;SDS011;43755;49.736;8.734;2022-11-04T05:11:09;6.45;;;1.80;;
11447;SDS011;43755;49.736;8.734;2022-11-04T05:13:11;5.40;;;1.67;;
11447;SDS011;43755;49.736;8.734;2022-11-04T05:15:29;3.97;;;1.70;;
11447;SDS011;43755;49.736;8.734;2022-11-04T05:17:32;4.28;;;1.70;;
11447;SDS011;43755;49.736;8.734;2022-11-04T05:19:33;3.70;;;1.40;;
11447;SDS011;43755;49.736;8.734;2022-11-04T05:21:34;3.85;;;1.60;;
11447;SDS011;43755;49.736;8.734;2022-11-04T05:23:36;5.38;;;1.75;;
11447;SDS011;43755;49.736;8.734;2022-11-04T05:25:38;5.47;;;1.60;;
11447;SDS011;43755;49.736;8.734;2022-11-04T05:27:41;4.72;;;1.50;;
11447;SDS011;43755;49.736;8.734;2022-11-04T05:29:43;7.95;;;1.77;;
11447;SDS011;43755;49.736;8.734;2022-11-04T05:31:44;4.82;;;1.77;;
11447;SDS011;43755;49.736;8.734;2022-11-04T05:33:45;7.22;;;1.88;;
11447;SDS011;43755;49.736;8.734;2022-11-04T05:35:47;9.75;;;2.10;;
11447;SDS011;43755;49.736;8.734;2022-11-04T05:37:49;3.55;;;1.58;;
11447;SDS011;43755;49.736;8.734;2022-11-04T05:39:50;3.33;;;1.60;;
11447;SDS011;43755;49.736;8.734;2022-11-04T05:41:51;8.68;;;2.22;;
11447;SDS011;43755;49.736;8.734;2022-11-04T05:43:55;2.63;;;1.60;;
11447;SDS011;43755;49.736;8.734;2022-11-04T05:45:57;3.70;;;1.77;;
11447;SDS011;43755;49.736;8.734;2022-11-04T05:47:59;4.10;;;1.80;;
11447;SDS011;43755;49.736;8.734;2022-11-04T05:50:02;3.40;;;2.00;;
11447;SDS011;43755;49.736;8.734;2022-11-04T05:52:04;6.40;;;1.90;;
11447;SDS011;43755;49.736;8.734;2022-11-04T05:54:05;5.97;;;1.90;;
11447;SDS011;43755;49.736;8.734;2022-11-04T05:56:08;6.07;;;1.83;;
11447;SDS011;43755;49.736;8.734;2022-11-04T05:58:09;5.07;;;1.80;;
11447;SDS011;43755;49.736;8.734;2022-11-04T06:00:13;5.30;;;1.73;;
11447;SDS011;43755;49.736;8.734;2022-11-04T06:02:15;4.40;;;1.77;;
11447;SDS011;43755;49.736;8.734;2022-11-04T06:04:17;4.15;;;1.88;;
11447;SDS011;43755;49.736;8.734;2022-11-04T06:06:19;5.72;;;1.92;;
11447;SDS011;43755;49.736;8.734;2022-11-04T06:08:21;11.32;;;2.20;;
11447;SDS011;43755;49.736;8.734;2022-11-04T06:10:23;5.45;;;2.03;;
11447;SDS011;43755;49.736;8.734;2022-11-04T06:12:25;6.65;;;2.05;;
11447;SDS011;43755;49.736;8.734;2022-11-04T06:14:26;6.40;;;2.13;;
11447;SDS011;43755;49.736;8.734;2022-11-04T06:16:29;7.38;;;1.83;;
11447;SDS011;43755;49.736;8.734;2022-11-04T06:18:31;5.43;;;2.10;;
11447;SDS011;43755;49.736;8.734;2022-11-04T06:20:32;7.70;;;2.03;;
11447;SDS011;43755;49.736;8.734;2022-11-04T06:22:33;4.75;;;1.85;;
11447;SDS011;43755;49.736;8.734;2022-11-04T06:24:35;4.32;;;2.08;;
11447;SDS011;43755;49.736;8.734;2022-11-04T06:26:36;5.57;;;2.00;;
11447;SDS011;43755;49.736;8.734;2022-11-04T06:28:38;4.35;;;2.08;;
11447;SDS011;43755;49.736;8.734;2022-11-04T06:30:40;6.35;;;1.80;;
11447;SDS011;43755;49.736;8.734;2022-11-04T06:32:43;6.43;;;2.00;;
11447;SDS011;43755;49.736;8.734;2022-11-04T06:34:44;3.42;;;2.10;;
11447;SDS011;43755;49.736;8.734;2022-11-04T06:36:47;5.00;;;1.80;;
11447;SDS011;43755;49.736;8.734;2022-11-04T06:38:48;5.07;;;2.00;;
11447;SDS011;43755;49.736;8.734;2022-11-04T06:40:50;4.35;;;2.00;;
11447;SDS011;43755;49.736;8.734;2022-11-04T06:42:51;4.85;;;1.90;;
11447;SDS011;43755;49.736;8.734;2022-11-04T06:44:53;5.90;;;1.95;;
11447;SDS011;43755;49.736;8.734;2022-11-04T06:46:54;3.85;;;1.83;;
11447;SDS011;43755;49.736;8.734;2022-11-04T06:48:57;6.50;;;1.90;;
11447;SDS011;43755;49.736;8.734;2022-11-04T06:50:59;3.67;;;2.10;;
11447;SDS011;43755;49.736;8.734;2022-11-04T06:53:01;7.80;;;2.08;;
11447;SDS011;43755;49.736;8.734;2022-11-04T06:55:02;5.25;;;2.10;;
11447;SDS011;43755;49.736;8.734;2022-11-04T06:57:04;3.88;;;1.70;;
11447;SDS011;43755;49.736;8.734;2022-11-04T06:59:06;4.20;;;1.83;;
11447;SDS011;43755;49.736;8.734;2022-11-04T07:01:08;7.95;;;1.83;;
11447;SDS011;43755;49.736;8.734;2022-11-04T07:03:09;3.45;;;1.70;;
11447;SDS011;43755;49.736;8.734;2022-11-04T07:05:12;6.30;;;1.80;;
11447;SDS011;43755;49.736;8.734;2022-11-04T07:07:14;3.83;;;1.65;;
11447;SDS011;43755;49.736;8.734;2022-11-04T07:09:16;3.90;;;1.50;;
11447;SDS011;43755;49.736;8.734;2022-11-04T07:11:18;4.45;;;1.52;;
11447;SDS011;43755;49.736;8.734;2022-11-04T07:13:21;3.72;;;1.30;;
11447;SDS011;43755;49.736;8.734;2022-11-04T07:15:22;5.28;;;1.45;;
11447;SDS011;43755;49.736;8.734;2022-11-04T07:17:24;4.05;;;1.40;;
11447;SDS011;43755;49.736;8.734;2022-11-04T07:19:25;7.97;;;1.67;;
11447;SDS011;43755;49.736;8.734;2022-11-04T07:21:28;5.15;;;1.27;;
11447;SDS011;43755;49.736;8.734;2022-11-04T07:23:29;6.63;;;1.38;;
11447;SDS011;43755;49.736;8.734;2022-11-04T07:25:31;5.20;;;1.67;;
11447;SDS011;43755;49.736;8.734;2022-11-04T07:27:32;3.92;;;1.65;;
11447;SDS011;43755;49.736;8.734;2022-11-04T07:29:33;6.25;;;1.60;;
11447;SDS011;43755;49.736;8.734;2022-11-04T07:31:36;7.82;;;1.80;;
11447;SDS011;43755;49.736;8.734;2022-11-04T07:33:38;6.97;;;1.67;;
11447;SDS011;43755;49.736;8.734;2022-11-04T07:35:39;3.78;;;1.58;;
11447;SDS011;43755;49.736;8.734;2022-11-04T07:37:42;4.07;;;1.55;;
11447;SDS011;43755;49.736;8.734;2022-11-04T07:39:43;4.68;;;1.50;;
11447;SDS011;43755;49.736;8.734;2022-11-04T07:41:45;1.40;;;1.30;;
11447;SDS011;43755;49.736;8.734;2022-11-04T07:43:47;3.55;;;1.55;;
11447;SDS011;43755;49.736;8.734;2022-11-04T07:45:57;3.20;;;1.48;;
11447;SDS011;43755;49.736;8.734;2022-11-04T07:47:59;2.90;;;1.42;;
11447;SDS011;43755;49.736;8.734;2022-11-04T07:50:01;3.67;;;1.30;;
11447;SDS011;43755;49.736;8.734;2022-11-04T07:52:02;2.35;;;1.23;;
11447;SDS011;43755;49.736;8.734;2022-11-04T07:54:05;4.70;;;1.45;;
11447;SDS011;43755;49.736;8.734;2022-11-04T07:56:07;4.55;;;1.42;;
11447;SDS011;43755;49.736;8.734;2022-11-04T07:58:11;4.60;;;1.30;;
11447;SDS011;43755;49.736;8.734;2022-11-04T08:00:13;4.40;;;1.65;;
11447;SDS011;43755;49.736;8.734;2022-11-04T08:02:15;3.65;;;1.67;;
11447;SDS011;43755;49.736;8.734;2022-11-04T08:04:17;4.15;;;1.25;;
11447;SDS011;43755;49.736;8.734;2022-11-04T08:06:19;5.20;;;1.52;;
11447;SDS011;43755;49.736;8.734;2022-11-04T08:08:21;4.63;;;1.42;;
11447;SDS011;43755;49.736;8.734;2022-11-04T08:10:24;4.90;;;1.45;;
11447;SDS011;43755;49.736;8.734;2022-11-04T08:12:25;5.60;;;1.30;;
11447;SDS011;43755;49.736;8.734;2022-11-04T08:14:27;4.82;;;1.60;;
11447;SDS011;43755;49.736;8.734;2022-11-04T08:16:28;2.53;;;1.13;;
11447;SDS011;43755;49.736;8.734;2022-11-04T08:18:30;4.18;;;1.15;;
11447;SDS011;43755;49.736;8.734;2022-11-04T08:20:32;1.63;;;1.02;;
11447;SDS011;43755;49.736;8.734;2022-11-04T08:22:33;2.25;;;1.15;;
11447;SDS011;43755;49.736;8.734;2022-11-04T08:24:34;2.22;;;1.40;;
11447;SDS011;43755;49.736;8.734;2022-11-04T08:26:37;4.88;;;1.20;;
11447;SDS011;43755;49.736;8.734;2022-11-04T08:28:39;2.80;;;1.38;;
11447;SDS011;43755;49.736;8.734;2022-11-04T08:30:41;3.13;;;1.25;;
11447;SDS011;43755;49.736;8.734;2022-11-04T08:32:42;2.42;;;1.20;;
11447;SDS011;43755;49.736;8.734;2022-11-04T08:34:44;1.33;;;1.00;;
11447;SDS011;43755;49.736;8.734;2022-11-04T08:36:45;4.38;;;1.20;;
11447;SDS011;43755;49.736;8.734;2022-11-04T08:38:47;3.20;;;1.42;;
11447;SDS011;43755;49.736;8.734;2022-11-04T08:40:49;2.50;;;1.35;;
11447;SDS011;43755;49.736;8.734;2022-11-04T08:42:53;3.03;;;1.30;;
11447;SDS011;43755;49.736;8.734;2022-11-04T08:44:54;4.05;;;1.30;;
11447;SDS011;43755;49.736;8.734;2022-11-04T08:46:56;2.80;;;1.50;;
11447;SDS011;43755;49.736;8.734;2022-11-04T08:48:57;4.68;;;1.27;;
11447;SDS011;43755;49.736;8.734;2022-11-04T08:50:58;5.97;;;1.30;;
11447;SDS011;43755;49.736;8.734;2022-11-04T08:53:00;1.75;;;1.20;;
11447;SDS011;43755;49.736;8.734;2022-11-04T08:55:02;1.17;;;1.08;;
11447;SDS011;43755;49.736;8.734;2022-11-04T08:57:03;4.65;;;1.42;;
11447;SDS011;43755;49.736;8.734;2022-11-04T08:59:06;2.45;;;1.10;;
11447;SDS011;43755;49.736;8.734;2022-11-04T09:01:09;4.15;;;1.45;;
11447;SDS011;43755;49.736;8.734;2022-11-04T09:03:11;1.60;;;1.10;;
11447;SDS011;43755;49.736;8.734;2022-11-04T09:05:13;2.90;;;1.20;;
11447;SDS011;43755;49.736;8.734;2022-11-04T09:07:14;4.07;;;1.10;;
11447;SDS011;43755;49.736;8.734;2022-11-04T09:09:16;1.85;;;0.95;;
11447;SDS011;43755;49.736;8.734;2022-11-04T09:11:18;2.67;;;1.30;;
11447;SDS011;43755;49.736;8.734;2022-11-04T09:13:19;2.78;;;1.20;;
11447;SDS011;43755;49.736;8.734;2022-11-04T09:15:22;2.03;;;1.20;;
11447;SDS011;43755;49.736;8.734;2022-11-04T09:17:23;1.50;;;1.02;;
11447;SDS011;43755;49.736;8.734;2022-11-04T09:19:25;1.83;;;1.20;;
11447;SDS011;43755;49.736;8.734;2022-11-04T09:21:27;4.68;;;1.25;;
11447;SDS011;43755;49.736;8.734;2022-11-04T09:23:28;2.72;;;1.85;;
11447;SDS011;43755;49.736;8.734;2022-11-04T09:25:30;1.67;;;1.50;;
11447;SDS011;43755;49.736;8.734;2022-11-04T09:27:32;3.35;;;1.52;;
11447;SDS011;43755;49.736;8.734;2022-11-04T09:29:34;1.85;;;0.98;;
11447;SDS011;43755;49.736;8.734;2022-11-04T09:31:36;2.47;;;1.30;;
11447;SDS011;43755;49.736;8.734;2022-11-04T09:33:38;4.35;;;1.52;;
11447;SDS011;43755;49.736;8.734;2022-11-04T09:35:40;3.67;;;1.73;;
11447;SDS011;43755;49.736;8.734;2022-11-04T09:37:41;4.07;;;1.60;;
11447;SDS011;43755;49.736;8.734;2022-11-04T09:39:42;3.17;;;1.17;;
11447;SDS011;43755;49.736;8.734;2022-11-04T09:41:53;2.05;;;1.27;;
11447;SDS011;43755;49.736;8.734;2022-11-04T09:44:09;4.57;;;1.15;;
11447;SDS011;43755;49.736;8.734;2022-11-04T09:46:18;2.20;;;1.30;;
11447;SDS011;43755;49.736;8.734;2022-11-04T09:48:23;3.58;;;1.30;;
11447;SDS011;43755;49.736;8.734;2022-11-04T09:50:27;4.50;;;1.50;;
11447;SDS011;43755;49.736;8.734;2022-11-04T09:52:32;4.13;;;1.95;;
11447;SDS011;43755;49.736;8.734;2022-11-04T09:54:40;3.95;;;2.00;;
11447;SDS011;43755;49.736;8.734;2022-11-04T09:56:44;4.38;;;1.42;;
11447;SDS011;43755;49.736;8.734;2022-11-04T09:58:50;3.95;;;1.55;;
11447;SDS011;43755;49.736;8.734;2022-11-04T10:00:54;3.63;;;1.40;;
11447;SDS011;43755;49.736;8.734;2022-11-04T10:03:03;2.75;;;1.20;;
11447;SDS011;43755;49.736;8.734;2022-11-04T10:05:22;3.90;;;1.23;;
11447;SDS011;43755;49.736;8.734;2022-11-04T10:07:47;2.85;;;1.30;;
11447;SDS011;43755;49.736;8.734;2022-11-04T10:10:04;2.95;;;1.13;;
11447;SDS011;43755;49.736;8.734;2022-11-04T10:12:16;2.92;;;1.50;;
11447;SDS011;43755;49.736;8.734;2022-11-04T10:14:28;4.18;;;1.50;;
11447;SDS011;43755;49.736;8.734;2022-11-04T10:16:48;4.72;;;1.42;;
11447;SDS011;43755;49.736;8.734;2022-11-04T10:19:06;3.88;;;1.30;;
11447;SDS011;43755;49.736;8.734;2022-11-04T10:21:26;1.98;;;1.20;;
11447;SDS011;43755;49.736;8.734;2022-11-04T10:23:36;4.13;;;1.27;;
11447;SDS011;43755;49.736;8.734;2022-11-04T10:25:44;3.58;;;1.30;;
11447;SDS011;43755;49.736;8.734;2022-11-04T10:27:48;1.80;;;1.13;;
11447;SDS011;43755;49.736;8.734;2022-11-04T10:29:51;1.98;;;1.13;;
11447;SDS011;43755;49.736;8.734;2022-11-04T10:31:56;2.15;;;1.48;;
11447;SDS011;43755;49.736;8.734;2022-11-04T10:34:02;3.03;;;1.40;;
11447;SDS011;43755;49.736;8.734;2022-11-04T10:36:07;2.05;;;1.38;;
11447;SDS011;43755;49.736;8.734;2022-11-04T10:38:15;2.28;;;1.10;;
11447;SDS011;43755;49.736;8.734;2022-11-04T10:40:19;1.90;;;1.25;;
11447;SDS011;43755;49.736;8.734;2022-11-04T10:42:24;3.97;;;1.60;;
11447;SDS011;43755;49.736;8.734;2022-11-04T10:44:26;3.03;;;1.40;;
11447;SDS011;43755;49.736;8.734;2022-11-04T10:46:37;6.07;;;1.30;;
11447;SDS011;43755;49.736;8.734;2022-11-04T10:48:48;2.45;;;1.42;;
11447;SDS011;43755;49.736;8.734;2022-11-04T10:50:55;3.28;;;1.58;;
11447;SDS011;43755;49.736;8.734;2022-11-04T10:53:06;4.10;;;1.60;;
11447;SDS011;43755;49.736;8.734;2022-11-04T10:55:14;2.67;;;1.50;;
11447;SDS011;43755;49.736;8.734;2022-11-04T10:57:26;2.00;;;1.48;;
11447;SDS011;43755;49.736;8.734;2022-11-04T10:59:29;2.15;;;1.38;;
11447;SDS011;43755;49.736;8.734;2022-11-04T11:01:34;4.93;;;1.40;;
11447;SDS011;43755;49.736;8.734;2022-11-04T11:03:35;2.80;;;1.42;;
11447;SDS011;43755;49.736;8.734;2022-11-04T11:05:37;4.18;;;1.60;;
11447;SDS011;43755;49.736;8.734;2022-11-04T11:07:38;2.88;;;1.40;;
11447;SDS011;43755;49.736;8.734;2022-11-04T11:09:42;1.95;;;1.50;;
11447;SDS011;43755;49.736;8.734;2022-11-04T11:11:53;3.25;;;1.48;;
11447;SDS011;43755;49.736;8.734;2022-11-04T11:13:56;3.35;;;1.35;;
11447;SDS011;43755;49.736;8.734;2022-11-04T11:16:08;3.15;;;1.50;;
11447;SDS011;43755;49.736;8.734;2022-11-04T11:18:13;3.05;;;1.23;;
11447;SDS011;43755;49.736;8.734;2022-11-04T11:20:18;3.67;;;1.30;;
11447;SDS011;43755;49.736;8.734;2022-11-04T11:22:28;3.53;;;1.77;;
11447;SDS011;43755;49.736;8.734;2022-11-04T11:24:32;2.63;;;1.50;;
11447;SDS011;43755;49.736;8.734;2022-11-04T11:26:34;3.08;;;1.20;;
11447;SDS011;43755;49.736;8.734;2022-11-04T11:28:37;2.55;;;1.23;;
11447;SDS011;43755;49.736;8.734;2022-11-04T11:30:52;3.33;;;1.48;;
11447;SDS011;43755;49.736;8.734;2022-11-04T11:32:59;3.63;;;1.38;;
11447;SDS011;43755;49.736;8.734;2022-11-04T11:35:04;3.03;;;1.42;;
11447;SDS011;43755;49.736;8.734;2022-11-04T11:37:18;4.75;;;1.95;;
11447;SDS011;43755;49.736;8.734;2022-11-04T11:39:22;4.72;;;1.77;;
11447;SDS011;43755;49.736;8.734;2022-11-04T11:41:27;5.38;;;1.50;;
11447;SDS011;43755;49.736;8.734;2022-11-04T11:43:31;3.60;;;1.52;;
11447;SDS011;43755;49.736;8.734;2022-11-04T11:45:36;2.22;;;1.25;;
11447;SDS011;43755;49.736;8.734;2022-11-04T11:47:38;2.47;;;1.60;;
11447;SDS011;43755;49.736;8.734;2022-11-04T11:49:41;3.58;;;1.52;;
11447;SDS011;43755;49.736;8.734;2022-11-04T11:51:42;4.18;;;1.50;;
11447;SDS011;43755;49.736;8.734;2022-11-04T11:53:56;4.88;;;1.80;;
11447;SDS011;43755;49.736;8.734;2022-11-04T11:56:06;4.07;;;1.52;;
11447;SDS011;43755;49.736;8.734;2022-11-04T11:58:18;4.38;;;1.95;;
11447;SDS011;43755;49.736;8.734;2022-11-04T12:00:27;5.18;;;2.05;;
11447;SDS011;43755;49.736;8.734;2022-11-04T12:02:39;3.00;;;1.88;;
11447;SDS011;43755;49.736;8.734;2022-11-04T12:04:45;4.32;;;1.52;;
11447;SDS011;43755;49.736;8.734;2022-11-04T12:06:48;4.50;;;1.90;;
11447;SDS011;43755;49.736;8.734;2022-11-04T12:09:11;2.80;;;1.55;;
11447;SDS011;43755;49.736;8.734;2022-11-04T12:11:22;3.70;;;1.70;;
11447;SDS011;43755;49.736;8.734;2022-11-04T12:13:28;4.93;;;1.55;;
11447;SDS011;43755;49.736;8.734;2022-11-04T12:15:39;5.18;;;1.60;;
11447;SDS011;43755;49.736;8.734;2022-11-04T12:17:51;3.97;;;1.80;;
11447;SDS011;43755;49.736;8.734;2022-11-04T12:20:05;3.65;;;1.60;;
11447;SDS011;43755;49.736;8.734;2022-11-04T12:22:22;2.80;;;1.30;;
11447;SDS011;43755;49.736;8.734;2022-11-04T12:24:33;5.13;;;1.70;;
11447;SDS011;43755;49.736;8.734;2022-11-04T12:26:43;2.67;;;1.67;;
11447;SDS011;43755;49.736;8.734;2022-11-04T12:28:54;3.03;;;1.65;;
11447;SDS011;43755;49.736;8.734;2022-11-04T12:31:10;3.35;;;1.63;;
11447;SDS011;43755;49.736;8.734;2022-11-04T12:33:27;3.92;;;1.70;;
11447;SDS011;43755;49.736;8.734;2022-11-04T12:35:39;5.35;;;1.60;;
11447;SDS011;43755;49.736;8.734;2022-11-04T12:37:53;2.45;;;1.30;;